createdAt,value
2023-04-01T00:01:44.148Z,101502.22
2023-04-01T00:04:11.188Z,101509.16
2023-04-01T00:06:38.226Z,101500.41
2023-04-01T00:09:05.188Z,101502.97
2023-04-01T00:11:33.569Z,101498.44
2023-04-01T00:14:00.868Z,101499.50
2023-04-01T00:16:27.898Z,101496.84
2023-04-01T00:18:54.882Z,101494.25
2023-04-01T00:21:23.389Z,101504.59
2023-04-01T00:23:53.522Z,101501.19
2023-04-01T00:26:22.643Z,101502.19
2023-04-01T00:28:50.048Z,101496.84
2023-04-01T00:31:17.180Z,101492.69
2023-04-01T00:33:45.069Z,101492.69
2023-04-01T00:36:14.165Z,101485.78
2023-04-01T00:38:43.239Z,101487.31
2023-04-01T00:41:15.449Z,101496.16
2023-04-01T00:43:47.649Z,101490.06
2023-04-01T00:46:15.217Z,101492.50
2023-04-01T00:48:48.053Z,101501.38
2023-04-01T00:51:30.414Z,101495.31
2023-04-01T00:53:59.652Z,101496.19
2023-04-01T00:56:33.746Z,101487.56
2023-04-01T00:59:09.494Z,101488.44
2023-04-01T01:01:37.131Z,101497.00
2023-04-01T01:04:04.425Z,101494.47
2023-04-01T01:07:06.843Z,101487.38
2023-04-01T01:09:39.973Z,101482.97
2023-04-01T01:12:25.959Z,101478.50
2023-04-01T01:14:58.853Z,101481.06
2023-04-01T01:17:26.054Z,101486.34
2023-04-01T01:19:56.032Z,101474.06
2023-04-01T01:22:29.195Z,101471.44
2023-04-01T01:25:14.843Z,101471.34
2023-04-01T01:27:44.054Z,101476.69
2023-04-01T01:30:22.154Z,101472.41
2023-04-01T01:32:55.261Z,101469.63
2023-04-01T01:35:38.640Z,101473.13
2023-04-01T01:38:15.599Z,101466.91
2023-04-01T01:40:49.711Z,101469.66
2023-04-01T01:43:19.735Z,101473.22
2023-04-01T01:45:49.545Z,101460.75
2023-04-01T01:48:17.926Z,101467.72
2023-04-01T01:50:46.175Z,101474.72
2023-04-01T01:53:14.604Z,101471.25
2023-04-01T01:55:43.017Z,101470.41
2023-04-01T01:58:23.561Z,101466.13
2023-04-01T02:00:56.030Z,101456.44
2023-04-01T02:03:24.949Z,101460.78
2023-04-01T02:05:53.501Z,101458.94
2023-04-01T02:08:41.473Z,101453.78
2023-04-01T02:11:14.372Z,101460.00
2023-04-01T02:13:58.547Z,101452.09
2023-04-01T02:16:30.953Z,101462.50
2023-04-01T02:18:59.480Z,101456.41
2023-04-01T02:21:29.410Z,101451.00
2023-04-01T02:23:58.309Z,101451.91
2023-04-01T02:26:26.917Z,101448.47
2023-04-01T02:28:55.104Z,101455.38
2023-04-01T02:31:23.363Z,101445.75
2023-04-01T02:33:51.058Z,101435.44
2023-04-01T02:36:18.626Z,101437.13
2023-04-01T02:38:46.676Z,101436.41
2023-04-01T02:41:14.185Z,101441.50
2023-04-01T02:43:41.861Z,101440.72
2023-04-01T02:46:09.179Z,101443.28
2023-04-01T02:48:36.204Z,101437.97
2023-04-01T02:51:03.114Z,101439.63
2023-04-01T02:53:30.174Z,101437.81
2023-04-01T02:55:58.064Z,101438.66
2023-04-01T02:58:25.070Z,101439.59
2023-04-01T03:00:52.263Z,101440.38
2023-04-01T03:03:19.357Z,101443.00
2023-04-01T03:05:46.535Z,101434.25
2023-04-01T03:08:13.612Z,101436.16
2023-04-01T03:10:40.665Z,101437.00
2023-04-01T03:13:08.009Z,101443.00
2023-04-01T03:15:35.238Z,101435.44
2023-04-01T03:18:02.399Z,101434.41
2023-04-01T03:20:29.614Z,101439.53
2023-04-01T03:22:56.807Z,101437.00
2023-04-01T03:25:23.939Z,101436.94
2023-04-01T03:27:51.254Z,101433.63
2023-04-01T03:30:18.387Z,101443.19
2023-04-01T03:32:50.667Z,101434.44
2023-04-01T03:35:17.798Z,101440.63
2023-04-01T03:37:46.347Z,101432.69
2023-04-01T03:40:13.468Z,101429.13
2023-04-01T03:42:40.529Z,101433.56
2023-04-01T03:45:13.207Z,101431.94
2023-04-01T03:47:40.701Z,101421.47
2023-04-01T03:50:08.497Z,101431.03
2023-04-01T03:52:35.789Z,101425.00
2023-04-01T03:55:03.248Z,101428.50
2023-04-01T03:57:32.305Z,101428.59
2023-04-01T04:00:05.979Z,101429.53
2023-04-01T04:02:41.278Z,101427.78
2023-04-01T04:05:09.864Z,101425.25
2023-04-01T04:07:37.768Z,101433.84
2023-04-01T04:10:08.161Z,101440.09
2023-04-01T04:12:35.877Z,101455.69
2023-04-01T04:15:02.899Z,101446.25
2023-04-01T04:17:29.818Z,101448.03
2023-04-01T04:19:56.982Z,101445.06
2023-04-01T04:22:24.111Z,101451.13
2023-04-01T04:24:51.202Z,101443.13
2023-04-01T04:27:18.549Z,101447.47
2023-04-01T04:29:59.053Z,101443.94
2023-04-01T04:32:26.323Z,101434.31
2023-04-01T04:34:53.516Z,101442.94
2023-04-01T04:37:20.647Z,101444.03
2023-04-01T04:39:47.805Z,101447.53
2023-04-01T04:42:14.853Z,101443.03
2023-04-01T04:44:42.150Z,101416.41
2023-04-01T04:47:09.279Z,101439.41
2023-04-01T04:49:36.892Z,101434.19
2023-04-01T04:52:08.215Z,101439.34
2023-04-01T04:54:35.335Z,101436.72
2023-04-01T04:57:04.047Z,101437.63
2023-04-01T04:59:36.061Z,101436.56
2023-04-01T05:02:11.038Z,101439.16
2023-04-01T05:04:38.202Z,101432.22
2023-04-01T05:07:07.598Z,101439.25
2023-04-01T05:09:35.256Z,101436.56
2023-04-01T05:12:03.802Z,101439.13
2023-04-01T05:14:45.779Z,101436.56
2023-04-01T05:17:13.898Z,101441.78
2023-04-01T05:19:41.009Z,101447.94
2023-04-01T05:22:09.848Z,101445.19
2023-04-01T05:24:37.112Z,101452.94
2023-04-01T05:27:04.172Z,101453.69
2023-04-01T05:29:31.738Z,101454.47
2023-04-01T05:32:05.068Z,101451.84
2023-04-01T05:34:34.994Z,101456.13
2023-04-01T05:37:04.828Z,101460.44
2023-04-01T05:39:32.815Z,101461.66
2023-04-01T05:41:59.793Z,101453.56
2023-04-01T05:44:26.996Z,101452.72
2023-04-01T05:47:03.294Z,101455.19
2023-04-01T05:49:30.368Z,101448.25
2023-04-01T05:51:58.117Z,101457.81
2023-04-01T05:54:25.764Z,101462.09
2023-04-01T05:56:52.839Z,101456.94
2023-04-01T05:59:21.065Z,101466.44
2023-04-01T06:01:48.076Z,101462.00
2023-04-01T06:04:17.334Z,101456.63
2023-04-01T06:06:46.159Z,101461.84
2023-04-01T06:09:21.160Z,101460.88
2023-04-01T06:11:57.084Z,101454.91
2023-04-01T06:14:24.119Z,101464.38
2023-04-01T06:17:19.137Z,101467.91
2023-04-01T06:19:57.723Z,101463.72
2023-04-01T06:22:28.373Z,101463.13
2023-04-01T06:25:09.908Z,101468.31
2023-04-01T06:27:45.049Z,101462.94
2023-04-01T06:30:25.996Z,101452.69
2023-04-01T06:33:10.531Z,101456.19
2023-04-01T06:35:48.237Z,101446.66
2023-04-01T06:38:32.750Z,101459.00
2023-04-01T06:41:01.189Z,101450.19
2023-04-01T06:43:57.489Z,101470.09
2023-04-01T06:47:10.240Z,101465.72
2023-04-01T06:50:00.651Z,101475.38
2023-04-01T06:52:27.571Z,101478.09
2023-04-01T06:55:22.983Z,101473.91
2023-04-01T06:58:15.325Z,101478.63
2023-04-01T07:00:44.783Z,101477.00
2023-04-01T07:03:28.084Z,101477.00
2023-04-01T07:05:59.638Z,101474.53
2023-04-01T07:08:29.971Z,101474.75
2023-04-01T07:10:58.890Z,101470.56
2023-04-01T07:13:51.898Z,101475.97
2023-04-01T07:16:41.688Z,101482.34
2023-04-01T07:19:29.068Z,101469.59
2023-04-01T07:22:07.473Z,101467.22
2023-04-01T07:25:23.137Z,101458.56
2023-04-01T07:28:08.059Z,101459.56
2023-04-01T07:30:50.247Z,101462.38
2023-04-01T07:33:39.688Z,101456.47
2023-04-01T07:36:18.649Z,101456.66
2023-04-01T07:38:46.132Z,101449.94
2023-04-01T07:41:16.714Z,101448.19
2023-04-01T07:43:53.858Z,101444.13
2023-04-01T07:46:39.179Z,101442.56
2023-04-01T07:49:10.044Z,101444.34
2023-04-01T07:51:45.125Z,101441.91
2023-04-01T07:54:12.150Z,101442.94
2023-04-01T07:56:42.625Z,101432.50
2023-04-01T07:59:30.158Z,101440.41
2023-04-01T08:02:19.240Z,101430.50
2023-04-01T08:04:49.651Z,101444.88
2023-04-01T08:07:19.940Z,101441.72
2023-04-01T08:10:27.776Z,101433.56
2023-04-01T08:13:29.795Z,101432.66
2023-04-01T08:16:28.675Z,101437.34
2023-04-01T08:19:19.513Z,101426.19
2023-04-01T08:21:51.043Z,101435.22
2023-04-01T08:24:24.767Z,101420.47
2023-04-01T08:26:56.618Z,101426.84
2023-04-01T08:29:27.406Z,101424.41
2023-04-01T08:32:08.829Z,101421.78
2023-04-01T08:34:41.810Z,101422.06
2023-04-01T08:37:18.971Z,101406.56
2023-04-01T08:39:54.485Z,101409.41
2023-04-01T08:42:41.659Z,101407.16
2023-04-01T08:45:27.022Z,101421.31
2023-04-01T08:48:18.808Z,101404.81
2023-04-01T08:51:06.019Z,101411.09
2023-04-01T08:53:51.571Z,101405.81
2023-04-01T08:56:41.477Z,101405.72
2023-04-01T08:59:23.682Z,101404.97
2023-04-01T09:02:10.642Z,101390.09
2023-04-01T09:05:07.910Z,101400.81
2023-04-01T09:07:41.698Z,101402.88
2023-04-01T09:10:15.585Z,101402.09
2023-04-01T09:12:56.527Z,101385.41
2023-04-01T09:15:45.347Z,101392.56
2023-04-01T09:18:31.394Z,101401.41
2023-04-01T09:21:04.255Z,101392.63
2023-04-01T09:23:44.756Z,101380.09
2023-04-01T09:26:31.981Z,101383.53
2023-04-01T09:29:18.111Z,101385.38
2023-04-01T09:31:59.463Z,101382.84
2023-04-01T09:35:04.505Z,101378.47
2023-04-01T09:37:40.300Z,101379.31
2023-04-01T09:40:31.409Z,101365.28
2023-04-01T09:43:02.911Z,101374.94
2023-04-01T09:45:43.754Z,101366.16
2023-04-01T09:48:18.349Z,101375.00
2023-04-01T09:51:03.566Z,101372.59
2023-04-01T09:53:50.274Z,101387.63
2023-04-01T09:56:22.958Z,101383.47
2023-04-01T09:58:51.601Z,101380.94
2023-04-01T10:01:41.875Z,101382.63
2023-04-01T10:04:29.036Z,101374.75
2023-04-01T10:07:18.168Z,101371.38
2023-04-01T10:10:03.958Z,101369.53
2023-04-01T10:12:37.666Z,101366.22
2023-04-01T10:15:05.087Z,101355.19
2023-04-01T10:17:45.771Z,101357.09
2023-04-01T10:20:13.310Z,101360.56
2023-04-01T10:22:43.941Z,101343.06
2023-04-01T10:25:31.529Z,101355.25
2023-04-01T10:28:24.174Z,101357.09
2023-04-01T10:31:14.330Z,101356.34
2023-04-01T10:33:54.798Z,101337.13
2023-04-01T10:36:41.820Z,101333.50
2023-04-01T10:39:11.946Z,101340.53
2023-04-01T10:41:59.170Z,101341.38
2023-04-01T10:44:52.397Z,101330.78
2023-04-01T10:47:37.456Z,101339.03
2023-04-01T10:50:19.852Z,101338.09
2023-04-01T10:52:49.423Z,101311.88
2023-04-01T10:55:38.008Z,101307.72
2023-04-01T10:58:39.666Z,101313.88
2023-04-01T11:01:57.643Z,101306.81
2023-04-01T11:05:04.755Z,101306.13
2023-04-01T11:08:05.257Z,101318.53
2023-04-01T11:10:56.451Z,101310.41
2023-04-01T11:13:46.711Z,101314.75
2023-04-01T11:16:25.300Z,101313.72
2023-04-01T11:19:11.191Z,101318.09
2023-04-01T11:21:41.642Z,101310.22
2023-04-01T11:24:08.696Z,101309.38
2023-04-01T11:27:02.475Z,101310.94
2023-04-01T11:29:40.313Z,101315.19
2023-04-01T11:32:47.193Z,101326.56
2023-04-01T11:35:37.647Z,101322.25
2023-04-01T11:38:05.006Z,101317.22
2023-04-01T11:41:04.737Z,101311.16
2023-04-01T11:44:19.329Z,101318.25
2023-04-01T11:47:16.682Z,101310.19
2023-04-01T11:50:07.416Z,101301.09
2023-04-01T11:52:53.612Z,101312.34
2023-04-01T11:55:22.078Z,101291.94
2023-04-01T11:57:59.402Z,101315.38
2023-04-01T12:00:43.079Z,101302.28
2023-04-01T12:03:29.012Z,101305.03
2023-04-01T12:06:00.195Z,101321.75
2023-04-01T12:08:41.780Z,101310.34
2023-04-01T12:11:09.289Z,101314.72
2023-04-01T12:13:55.140Z,101306.97
2023-04-01T12:16:51.974Z,101301.91
2023-04-01T12:19:26.727Z,101308.88
2023-04-01T12:22:03.666Z,101309.78
2023-04-01T12:24:41.184Z,101300.13
2023-04-01T12:27:11.979Z,101302.84
2023-04-01T12:29:48.139Z,101304.47
2023-04-01T12:32:35.117Z,101323.84
2023-04-01T12:35:19.844Z,101339.97
2023-04-01T12:37:50.894Z,101328.28
2023-04-01T12:40:27.853Z,101314.28
2023-04-01T12:43:01.408Z,101316.28
2023-04-01T12:45:36.222Z,101306.63
2023-04-01T12:48:16.764Z,101303.72
2023-04-01T12:50:51.705Z,101302.16
2023-04-01T12:53:25.462Z,101290.19
2023-04-01T12:55:54.482Z,101284.50
2023-04-01T12:58:43.506Z,101283.50
2023-04-01T13:01:17.598Z,101290.47
2023-04-01T13:03:44.910Z,101290.97
2023-04-01T13:06:21.808Z,101284.56
2023-04-01T13:09:18.268Z,101297.59
2023-04-01T13:11:56.334Z,101289.75
2023-04-01T13:14:43.680Z,101288.81
2023-04-01T13:17:17.329Z,101296.75
2023-04-01T13:19:57.934Z,101294.00
2023-04-01T13:22:48.098Z,101287.97
2023-04-01T13:25:25.958Z,101328.63
2023-04-01T13:28:01.632Z,101346.63
2023-04-01T13:30:34.722Z,101345.66
2023-04-01T13:33:17.379Z,101354.06
2023-04-01T13:35:49.969Z,101356.91
2023-04-01T13:38:43.243Z,101361.28
2023-04-01T13:41:10.609Z,101345.66
2023-04-01T13:43:43.933Z,101366.66
2023-04-01T13:46:11.849Z,101353.22
2023-04-01T13:48:38.843Z,101352.06
2023-04-01T13:51:24.637Z,101344.88
2023-04-01T13:53:51.571Z,101347.47
2023-04-01T13:56:37.272Z,101342.34
2023-04-01T13:59:07.350Z,101327.50
2023-04-01T14:01:34.476Z,101337.34
2023-04-01T14:04:21.834Z,101306.81
2023-04-01T14:07:07.449Z,101315.84
2023-04-01T14:09:48.605Z,101311.78
2023-04-01T14:12:39.480Z,101308.72
2023-04-01T14:15:06.511Z,101324.41
2023-04-01T14:17:47.588Z,101316.13
2023-04-01T14:20:25.362Z,101324.00
2023-04-01T14:22:58.865Z,101304.84
2023-04-01T14:25:37.749Z,101310.22
2023-04-01T14:28:12.744Z,101316.75
2023-04-01T14:30:48.795Z,101318.34
2023-04-01T14:33:26.580Z,101313.38
2023-04-01T14:36:03.353Z,101318.09
2023-04-01T14:38:50.922Z,101326.03
2023-04-01T14:41:36.612Z,101333.06
2023-04-01T14:44:06.711Z,101325.72
2023-04-01T14:46:50.047Z,101312.66
2023-04-01T14:49:37.862Z,101325.16
2023-04-01T14:52:17.078Z,101318.81
2023-04-01T14:54:46.663Z,101323.19
2023-04-01T14:57:16.132Z,101326.28
2023-04-01T14:59:51.198Z,101343.53
2023-04-01T15:02:29.952Z,101361.72
2023-04-01T15:05:09.532Z,101389.41
2023-04-01T15:07:43.486Z,101397.53
2023-04-01T15:10:22.517Z,101399.53
2023-04-01T15:12:59.301Z,101409.28
2023-04-01T15:15:34.322Z,101397.22
2023-04-01T15:18:13.930Z,101386.44
2023-04-01T15:20:46.089Z,101393.16
2023-04-01T15:23:14.466Z,101400.31
2023-04-01T15:25:50.937Z,101403.50
2023-04-01T15:28:28.090Z,101410.16
2023-04-01T15:30:58.497Z,101395.25
2023-04-01T15:33:43.224Z,101388.69
2023-04-01T15:36:11.836Z,101403.47
2023-04-01T15:38:45.171Z,101395.75
2023-04-01T15:41:30.280Z,101394.25
2023-04-01T15:43:57.280Z,101392.59
2023-04-01T15:46:42.993Z,101380.81
2023-04-01T15:49:20.161Z,101386.09
2023-04-01T15:51:53.591Z,101387.19
2023-04-01T15:54:28.207Z,101386.75
2023-04-01T15:57:34.604Z,101386.94
2023-04-01T16:00:07.819Z,101387.94
2023-04-01T16:02:52.141Z,101389.63
2023-04-01T16:05:20.521Z,101385.22
2023-04-01T16:07:58.881Z,101389.41
2023-04-01T16:10:28.958Z,101385.78
2023-04-01T16:13:04.786Z,101388.22
2023-04-01T16:15:36.125Z,101388.09
2023-04-01T16:18:28.706Z,101395.81
2023-04-01T16:21:01.927Z,101398.56
2023-04-01T16:23:48.833Z,101392.72
2023-04-01T16:26:28.360Z,101388.69
2023-04-01T16:28:59.782Z,101392.28
2023-04-01T16:31:52.138Z,101386.41
2023-04-01T16:34:43.029Z,101394.44
2023-04-01T16:37:17.140Z,101384.84
2023-04-01T16:39:52.250Z,101393.53
2023-04-01T16:42:26.198Z,101399.50
2023-04-01T16:45:19.789Z,101391.50
2023-04-01T16:47:53.016Z,101394.94
2023-04-01T16:50:26.835Z,101398.31
2023-04-01T16:53:01.488Z,101397.41
2023-04-01T16:55:57.032Z,101406.84
2023-04-01T16:58:26.648Z,101406.66
2023-04-01T17:00:57.406Z,101418.88
2023-04-01T17:03:34.248Z,101416.16
2023-04-01T17:06:11.826Z,101422.22
2023-04-01T17:09:06.847Z,101423.19
2023-04-01T17:11:57.982Z,101426.50
2023-04-01T17:14:37.689Z,101429.25
2023-04-01T17:17:22.460Z,101431.00
2023-04-01T17:19:57.433Z,101423.31
2023-04-01T17:22:30.854Z,101422.28
2023-04-01T17:25:27.909Z,101437.22
2023-04-01T17:28:18.428Z,101438.03
2023-04-01T17:31:27.665Z,101443.13
2023-04-01T17:34:13.635Z,101441.44
2023-04-01T17:36:41.121Z,101447.44
2023-04-01T17:39:26.944Z,101441.44
2023-04-01T17:42:13.907Z,101451.03
2023-04-01T17:44:48.073Z,101448.31
2023-04-01T17:47:18.012Z,101444.81
2023-04-01T17:49:46.815Z,101449.13
2023-04-01T17:52:33.668Z,101453.38
2023-04-01T17:55:20.875Z,101448.09
2023-04-01T17:57:53.782Z,101454.78
2023-04-01T18:00:27.148Z,101454.69
2023-04-01T18:03:01.354Z,101463.06
2023-04-01T18:05:53.466Z,101469.09
2023-04-01T18:08:42.018Z,101476.91
2023-04-01T18:11:18.495Z,101463.72
2023-04-01T18:13:49.864Z,101472.06
2023-04-01T18:16:16.885Z,101476.56
2023-04-01T18:19:02.782Z,101474.75
2023-04-01T18:21:38.658Z,101477.97
2023-04-01T18:24:14.698Z,101469.25
2023-04-01T18:26:45.279Z,101469.84
2023-04-01T18:29:23.430Z,101473.19
2023-04-01T18:31:54.394Z,101473.84
2023-04-01T18:34:40.980Z,101473.66
2023-04-01T18:37:19.716Z,101470.94
2023-04-01T18:39:53.144Z,101482.03
2023-04-01T18:42:35.731Z,101483.69
2023-04-01T18:45:11.452Z,101501.16
2023-04-01T18:47:47.482Z,101497.41
2023-04-01T18:50:27.637Z,101507.75
2023-04-01T18:53:11.245Z,101507.66
2023-04-01T18:55:44.272Z,101512.13
2023-04-01T18:58:24.261Z,101521.56
2023-04-01T19:00:57.575Z,101521.44
2023-04-01T19:03:29.014Z,101520.53
2023-04-01T19:05:57.990Z,101510.47
2023-04-01T19:08:30.188Z,101521.59
2023-04-01T19:11:16.069Z,101517.16
2023-04-01T19:14:01.622Z,101529.22
2023-04-01T19:16:42.299Z,101536.03
2023-04-01T19:19:19.505Z,101536.75
2023-04-01T19:22:10.502Z,101533.09
2023-04-01T19:24:39.694Z,101544.31
2023-04-01T19:27:22.904Z,101545.84
2023-04-01T19:30:04.582Z,101548.28
2023-04-01T19:32:42.171Z,101548.03
2023-04-01T19:35:12.517Z,101552.97
2023-04-01T19:37:41.721Z,101559.03
2023-04-01T19:40:27.653Z,101552.63
2023-04-01T19:42:54.994Z,101562.81
2023-04-01T19:45:27.861Z,101556.69
2023-04-01T19:47:55.440Z,101563.63
2023-04-01T19:50:37.008Z,101571.59
2023-04-01T19:53:41.230Z,101573.97
2023-04-01T19:56:24.769Z,101564.41
2023-04-01T19:59:01.115Z,101570.25
2023-04-01T20:01:44.728Z,101573.47
2023-04-01T20:04:34.306Z,101576.44
2023-04-01T20:07:11.016Z,101572.25
2023-04-01T20:10:02.380Z,101573.00
2023-04-01T20:12:36.052Z,101577.41
2023-04-01T20:15:07.300Z,101584.03
2023-04-01T20:17:54.091Z,101579.56
2023-04-01T20:20:25.781Z,101578.59
2023-04-01T20:23:03.344Z,101592.06
2023-04-01T20:25:32.804Z,101593.59
2023-04-01T20:28:04.758Z,101594.16
2023-04-01T20:30:37.940Z,101588.88
2023-04-01T20:33:16.963Z,101587.91
2023-04-01T20:35:53.523Z,101593.75
2023-04-01T20:38:42.330Z,101600.44
2023-04-01T20:41:12.448Z,101598.66
2023-04-01T20:43:49.617Z,101600.50
2023-04-01T20:46:40.050Z,101602.09
2023-04-01T20:49:28.272Z,101610.56
2023-04-01T20:52:22.170Z,101620.69
2023-04-01T20:54:59.780Z,101615.31
2023-04-01T20:57:45.514Z,101619.34
2023-04-01T21:00:26.165Z,101621.19
2023-04-01T21:02:59.821Z,101626.38
2023-04-01T21:05:30.322Z,101623.66
2023-04-01T21:08:05.247Z,101624.41
2023-04-01T21:10:42.550Z,101612.94
2023-04-01T21:13:28.531Z,101620.38
2023-04-01T21:16:07.417Z,101622.78
2023-04-01T21:18:55.041Z,101620.56
2023-04-01T21:21:33.936Z,101624.72
2023-04-01T21:24:10.403Z,101630.47
2023-04-01T21:26:47.104Z,101622.72
2023-04-01T21:29:32.711Z,101615.50
2023-04-01T21:32:27.778Z,101631.03
2023-04-01T21:35:23.055Z,101637.88
2023-04-01T21:38:09.130Z,101636.94
2023-04-01T21:41:03.494Z,101643.75
2023-04-01T21:43:31.068Z,101640.09
2023-04-01T21:46:15.105Z,101645.31
2023-04-01T21:48:45.035Z,101646.34
2023-04-01T21:51:11.967Z,101642.63
2023-04-01T21:53:48.642Z,101642.03
2023-04-01T21:56:24.334Z,101641.88
2023-04-01T21:59:03.914Z,101652.16
2023-04-01T22:01:56.333Z,101647.69
2023-04-01T22:04:23.626Z,101645.91
2023-04-01T22:06:55.311Z,101653.63
2023-04-01T22:09:42.467Z,101652.59
2023-04-01T22:12:16.179Z,101651.53
2023-04-01T22:14:48.254Z,101656.56
2023-04-01T22:17:21.394Z,101664.22
2023-04-01T22:19:57.591Z,101664.09
2023-04-01T22:22:43.532Z,101653.75
2023-04-01T22:25:21.268Z,101662.19
2023-04-01T22:27:57.020Z,101665.59
2023-04-01T22:30:33.364Z,101669.09
2023-04-01T22:33:08.016Z,101665.31
2023-04-01T22:35:35.280Z,101669.28
2023-04-01T22:38:32.515Z,101666.84
2023-04-01T22:41:10.914Z,101667.50
2023-04-01T22:43:39.670Z,101677.00
2023-04-01T22:46:26.450Z,101679.63
2023-04-01T22:49:05.524Z,101676.59
2023-04-01T22:51:46.215Z,101678.97
2023-04-01T22:54:30.849Z,101677.06
2023-04-01T22:57:03.585Z,101683.00
2023-04-01T22:59:39.542Z,101681.31
2023-04-01T23:02:25.751Z,101681.31
2023-04-01T23:04:56.538Z,101676.25
2023-04-01T23:07:33.154Z,101683.91
2023-04-01T23:10:02.697Z,101683.16
2023-04-01T23:12:31.366Z,101684.88
2023-04-01T23:15:00.449Z,101690.06
2023-04-01T23:17:36.979Z,101693.50
2023-04-01T23:20:07.100Z,101690.22
2023-04-01T23:22:34.037Z,101688.47
2023-04-01T23:25:16.515Z,101693.69
2023-04-01T23:27:55.731Z,101700.53
2023-04-01T23:30:41.493Z,101688.38
2023-04-01T23:33:22.966Z,101692.59
2023-04-01T23:35:56.027Z,101689.19
2023-04-01T23:38:25.626Z,101695.19
2023-04-01T23:40:53.726Z,101700.16
2023-04-01T23:43:26.907Z,101703.56
2023-04-01T23:45:54.717Z,101702.50
2023-04-01T23:48:24.743Z,101705.31
2023-04-01T23:50:51.990Z,101701.75
2023-04-01T23:53:20.665Z,101697.09
2023-04-01T23:55:47.960Z,101704.00
2023-04-01T23:58:18.845Z,101702.84
